Cayuga, New York
Current Conditions -  °F | °C
As of 7:53 AM on Friday 24 Oct 2014 (Local Time) from KPEO Reporting Station
Broken Clouds Broken Clouds  
Wind Chill: 45°   Ceiling: 4200
Heat Index: 48°   Visibility: 10mi
Dew Point: 40°   Wind: 6mph
Humidity: 74%   Direction: 270°W
Pressure: 29.97"   Gusts: NA
Location:  42.92°N, 76.73°W
Report Text: KPEO 241153Z AUTO 27005KT 10SM BKN042 09/04 A2997 RMK AO2 SLP151 T00890044 10100 20078 50000
Loading
Personal Weather Stations






























Interactive Weather Map
Tropical Storm Tracking
New forecast layout! Learn more

10-Day Weather Forecast

Advertisements
Track Severe Weather on mobile